Time;durP1;ratioP1;P1;durP2;ratioP2;P2;SDS_P1;SDS_P2;PMS_P1;PMS_P2;Temp;Humidity;BMP_temperature;BMP_pressure;BME280_temperature;BME280_humidity;BME280_pressure;Samples;Min_cycle;Max_cycle;Signal;HPM_P1;HPM_P2
2023/03/19 00:00:20;;;;;;;1.15;0.30;;;12.00;99.90;;;;;;4944673;28;20402;-73
2023/03/19 00:02:50;;;;;;;1.48;0.40;;;11.90;99.90;;;;;;4952393;28;20490;-73
2023/03/19 00:05:17;;;;;;;0.88;0.30;;;11.80;99.90;;;;;;4957307;28;20058;-76
2023/03/19 00:07:44;;;;;;;0.90;0.50;;;11.70;99.90;;;;;;4964704;28;20418;-76
2023/03/19 00:10:11;;;;;;;1.95;0.20;;;11.60;99.90;;;;;;4954644;28;20038;-74
2023/03/19 00:12:37;;;;;;;1.63;0.32;;;11.50;99.90;;;;;;4953579;28;20038;-74
2023/03/19 00:15:06;;;;;;;0.60;0.40;;;11.40;99.90;;;;;;4953290;28;20047;-75
2023/03/19 00:17:32;;;;;;;0.80;0.20;;;11.30;99.90;;;;;;4955539;28;20023;-76
2023/03/19 00:19:59;;;;;;;0.93;0.30;;;11.30;99.90;;;;;;4946124;28;20046;-82
2023/03/19 00:22:25;;;;;;;0.93;0.40;;;11.30;99.90;;;;;;4955978;28;20026;-77
2023/03/19 00:24:52;;;;;;;1.02;0.30;;;11.20;99.90;;;;;;4960922;28;20594;-78
2023/03/19 00:27:18;;;;;;;1.20;0.25;;;11.10;99.90;;;;;;4961930;28;20045;-77
2023/03/19 00:29:45;;;;;;;1.15;0.30;;;11.00;99.90;;;;;;4947174;28;20042;-77
2023/03/19 00:32:11;;;;;;;2.13;0.30;;;11.00;99.90;;;;;;4924466;28;20045;-78
2023/03/19 00:34:37;;;;;;;0.90;0.20;;;11.00;99.90;;;;;;4939342;28;20401;-76
2023/03/19 00:37:04;;;;;;;0.55;0.28;;;10.90;99.90;;;;;;4954770;28;20030;-77
2023/03/19 00:39:31;;;;;;;0.73;0.30;;;10.90;99.90;;;;;;4951524;28;20516;-77
2023/03/19 00:41:57;;;;;;;0.43;0.30;;;10.90;99.90;;;;;;4961177;28;20050;-77
2023/03/19 00:44:23;;;;;;;1.35;0.28;;;10.90;99.90;;;;;;4947350;28;20050;-78
2023/03/19 00:46:50;;;;;;;1.02;0.30;;;10.90;99.90;;;;;;4937171;28;20034;-76
2023/03/19 00:49:16;;;;;;;2.00;0.50;;;10.90;99.90;;;;;;4950156;28;20413;-78
2023/03/19 00:51:44;;;;;;;1.08;0.40;;;10.90;99.90;;;;;;4955210;28;20038;-76
2023/03/19 00:54:11;;;;;;;1.50;0.40;;;10.90;99.90;;;;;;4938536;28;20031;-78
2023/03/19 00:56:38;;;;;;;2.05;0.80;;;10.90;99.90;;;;;;4959280;28;20386;-77
2023/03/19 00:59:05;;;;;;;0.98;0.50;;;10.90;99.90;;;;;;4928295;28;20049;-78
2023/03/19 01:01:32;;;;;;;1.05;0.60;;;10.90;99.90;;;;;;4959673;28;20066;-77
2023/03/19 01:03:58;;;;;;;1.15;0.40;;;10.90;99.90;;;;;;4954074;28;20042;-79
2023/03/19 01:06:24;;;;;;;1.35;0.68;;;10.90;99.90;;;;;;4958405;28;20041;-77
2023/03/19 01:08:51;;;;;;;1.77;0.77;;;10.90;99.90;;;;;;4954962;28;20057;-79
2023/03/19 01:11:17;;;;;;;1.15;0.60;;;10.90;99.90;;;;;;4952587;28;20038;-79
2023/03/19 01:13:44;;;;;;;1.50;0.70;;;10.90;99.90;;;;;;4961888;28;20398;-77
2023/03/19 01:16:11;;;;;;;1.35;0.60;;;10.90;99.90;;;;;;4963707;28;20034;-79
2023/03/19 01:18:37;;;;;;;4.25;0.80;;;10.90;99.90;;;;;;4945773;28;21191;-78
2023/03/19 01:21:05;;;;;;;1.60;0.70;;;10.90;99.90;;;;;;4931387;28;20034;-77
2023/03/19 01:23:32;;;;;;;1.60;0.70;;;10.90;99.90;;;;;;4950475;28;20119;-78
2023/03/19 01:25:59;;;;;;;1.30;0.60;;;10.80;99.90;;;;;;4937449;28;20042;-79
2023/03/19 01:28:27;;;;;;;1.88;0.60;;;10.80;99.90;;;;;;4915509;28;20268;-78
2023/03/19 01:30:58;;;;;;;3.80;0.70;;;10.80;99.90;;;;;;4945990;28;20027;-80
2023/03/19 01:33:45;;;;;;;1.55;0.52;;;10.80;99.90;;;;;;4926893;28;20046;-78
2023/03/19 01:36:26;;;;;;;1.13;0.60;;;10.80;99.90;;;;;;4948778;28;20038;-79
2023/03/19 01:39:11;;;;;;;1.10;0.60;;;10.70;99.90;;;;;;4949123;28;20073;-78
2023/03/19 01:41:38;;;;;;;1.92;0.60;;;10.60;99.90;;;;;;4950676;28;20043;-77
2023/03/19 01:44:34;;;;;;;0.77;0.50;;;10.60;99.90;;;;;;4940353;28;20514;-79
2023/03/19 01:47:30;;;;;;;1.33;0.60;;;10.50;99.90;;;;;;4955861;28;20038;-79
2023/03/19 01:50:33;;;;;;;0.80;0.57;;;10.40;99.90;;;;;;4952137;28;20058;-77
2023/03/19 01:53:30;;;;;;;1.52;0.77;;;10.30;99.90;;;;;;4937328;28;20050;-77
2023/03/19 01:56:17;;;;;;;1.95;0.75;;;10.30;99.90;;;;;;4964417;28;20026;-77
2023/03/19 01:59:11;;;;;;;1.38;0.70;;;10.30;99.90;;;;;;4958198;28;20057;-77
2023/03/19 02:02:08;;;;;;;2.03;0.60;;;10.30;99.90;;;;;;4952665;28;20047;-76
2023/03/19 02:04:37;;;;;;;1.73;0.70;;;10.30;99.90;;;;;;4937009;28;20053;-77
2023/03/19 02:07:05;;;;;;;1.52;0.90;;;10.30;99.90;;;;;;4940913;28;20481;-77
2023/03/19 02:09:32;;;;;;;1.63;0.75;;;10.30;99.90;;;;;;4934691;28;20061;-77
2023/03/19 02:12:00;;;;;;;1.25;0.60;;;10.30;99.90;;;;;;4950798;28;20678;-78
2023/03/19 02:14:27;;;;;;;1.52;0.70;;;10.30;99.90;;;;;;4922107;28;20031;-77
2023/03/19 02:16:54;;;;;;;1.23;0.63;;;10.30;99.90;;;;;;4955544;28;20042;-76
2023/03/19 02:20:05;;;;;;;1.50;1.05;;;10.30;99.90;;;;;;4946263;28;20034;-79
2023/03/19 02:22:32;;;;;;;1.73;0.90;;;10.40;99.90;;;;;;4906703;28;20039;-77
2023/03/19 02:25:18;;;;;;;1.55;0.90;;;10.40;99.90;;;;;;4912930;28;20328;-77
2023/03/19 02:27:46;;;;;;;2.97;1.33;;;10.40;99.90;;;;;;4939025;28;20057;-76
2023/03/19 02:30:24;;;;;;;2.00;1.17;;;10.50;99.90;;;;;;4944741;28;20049;-77
2023/03/19 02:32:51;;;;;;;2.08;1.23;;;10.50;99.90;;;;;;4952900;28;21538;-78
2023/03/19 02:35:17;;;;;;;1.98;1.40;;;10.50;99.90;;;;;;4938311;28;20295;-77
2023/03/19 02:37:44;;;;;;;3.35;1.33;;;10.60;99.90;;;;;;4951939;28;20053;-77
2023/03/19 02:40:31;;;;;;;3.92;1.85;;;10.60;99.90;;;;;;4935043;28;20048;-78
2023/03/19 02:42:58;;;;;;;1.85;1.10;;;10.60;99.90;;;;;;4960564;28;20046;-77
2023/03/19 02:45:30;;;;;;;2.85;1.75;;;10.60;99.90;;;;;;4936129;28;20050;-76
2023/03/19 02:47:58;;;;;;;2.67;1.73;;;10.60;99.90;;;;;;4953784;28;20129;-77
2023/03/19 02:50:25;;;;;;;2.28;1.40;;;10.60;99.90;;;;;;4944495;28;20330;-76
2023/03/19 02:52:52;;;;;;;3.15;1.50;;;10.60;99.90;;;;;;4952557;28;20045;-77
2023/03/19 02:55:20;;;;;;;4.40;1.80;;;10.60;99.90;;;;;;4938192;28;20437;-76
2023/03/19 02:57:46;;;;;;;2.38;1.60;;;10.60;99.90;;;;;;4959424;28;20037;-76
2023/03/19 03:00:13;;;;;;;3.08;1.88;;;10.60;99.90;;;;;;4953201;28;20580;-76
2023/03/19 03:02:40;;;;;;;2.20;1.45;;;10.70;99.90;;;;;;4920679;28;20405;-77
2023/03/19 03:05:08;;;;;;;2.78;1.70;;;10.70;99.90;;;;;;4954102;28;20049;-77
2023/03/19 03:07:34;;;;;;;2.95;1.77;;;10.70;99.90;;;;;;4954520;28;20042;-79
2023/03/19 03:10:01;;;;;;;4.30;2.72;;;10.70;99.90;;;;;;4927200;28;20069;-77
2023/03/19 03:12:27;;;;;;;2.33;1.83;;;10.70;99.90;;;;;;4936087;28;20033;-78
2023/03/19 03:14:54;;;;;;;3.78;2.05;;;10.70;99.90;;;;;;4945117;28;20366;-79
2023/03/19 03:17:20;;;;;;;2.00;1.67;;;10.80;99.90;;;;;;4967008;28;20030;-77
2023/03/19 03:19:46;;;;;;;2.92;1.73;;;10.80;99.90;;;;;;4939213;28;20046;-76
2023/03/19 03:22:13;;;;;;;4.05;1.85;;;10.80;99.90;;;;;;4955265;28;20470;-76
2023/03/19 03:24:40;;;;;;;3.28;2.42;;;10.80;99.90;;;;;;4925331;28;20622;-76
2023/03/19 03:27:07;;;;;;;2.72;2.35;;;10.80;99.90;;;;;;4955400;28;20042;-76
2023/03/19 03:29:33;;;;;;;3.20;2.28;;;10.80;99.90;;;;;;4952556;28;20038;-76
2023/03/19 03:32:00;;;;;;;3.50;2.13;;;10.80;99.90;;;;;;4962058;28;20042;-76
2023/03/19 03:34:26;;;;;;;3.60;2.60;;;10.80;99.90;;;;;;4962385;28;20470;-76
2023/03/19 03:36:52;;;;;;;4.18;3.47;;;10.80;99.90;;;;;;4959604;28;20041;-78
2023/03/19 03:39:19;;;;;;;3.20;2.90;;;10.80;99.90;;;;;;4949828;28;22256;-76
2023/03/19 03:41:45;;;;;;;3.97;3.20;;;10.80;99.90;;;;;;4955540;28;20039;-76
2023/03/19 03:44:12;;;;;;;4.90;3.03;;;10.80;99.90;;;;;;4939601;28;20039;-79
2023/03/19 03:46:42;;;;;;;5.53;3.10;;;10.80;99.90;;;;;;4919053;28;20051;-77
2023/03/19 03:49:09;;;;;;;4.20;2.67;;;10.80;99.90;;;;;;4938532;28;20437;-76
2023/03/19 03:51:35;;;;;;;5.47;3.90;;;10.80;99.90;;;;;;4959446;28;20057;-81
2023/03/19 03:54:02;;;;;;;5.60;3.65;;;10.80;99.90;;;;;;4955024;28;20046;-77
2023/03/19 03:56:30;;;;;;;3.47;3.05;;;10.80;99.90;;;;;;4934388;28;21780;-76
2023/03/19 03:58:56;;;;;;;3.97;3.33;;;10.80;99.90;;;;;;4930656;28;20043;-79
2023/03/19 04:01:22;;;;;;;3.92;3.33;;;10.80;99.90;;;;;;4947267;28;20043;-79
2023/03/19 04:03:54;;;;;;;4.13;3.70;;;10.80;99.90;;;;;;4950902;28;20054;-76
2023/03/19 04:06:22;;;;;;;4.60;3.70;;;10.80;99.90;;;;;;4958109;28;20047;-75
2023/03/19 04:09:01;;;;;;;5.60;2.72;;;10.70;99.90;;;;;;4925903;28;20579;-78
2023/03/19 04:11:28;;;;;;;3.53;3.22;;;10.70;99.90;;;;;;4936879;28;20043;-79
2023/03/19 04:13:56;;;;;;;3.88;3.20;;;10.70;99.90;;;;;;4935990;28;20034;-76
2023/03/19 04:16:24;;;;;;;5.75;3.67;;;10.70;99.90;;;;;;4904651;28;20051;-76
2023/03/19 04:18:50;;;;;;;3.85;3.42;;;10.70;99.90;;;;;;4932876;28;20053;-77
2023/03/19 04:21:17;;;;;;;6.15;4.30;;;10.80;99.90;;;;;;4946002;28;20509;-76
2023/03/19 04:23:44;;;;;;;4.57;3.67;;;10.70;99.90;;;;;;4940057;28;20382;-77
2023/03/19 04:26:11;;;;;;;4.03;3.55;;;10.80;99.90;;;;;;4943770;28;20069;-77
2023/03/19 04:28:37;;;;;;;4.40;3.75;;;10.80;99.90;;;;;;4932492;28;20047;-77
2023/03/19 04:31:08;;;;;;;3.60;3.22;;;10.80;99.90;;;;;;4926903;28;21381;-76
2023/03/19 04:33:38;;;;;;;4.57;4.13;;;10.90;99.90;;;;;;4945758;28;20062;-76
2023/03/19 04:36:05;;;;;;;7.43;4.35;;;10.90;99.90;;;;;;4938366;28;20377;-76
2023/03/19 04:38:32;;;;;;;5.00;3.47;;;10.90;99.90;;;;;;4938509;28;20042;-78
2023/03/19 04:41:00;;;;;;;6.63;4.63;;;10.80;99.90;;;;;;4924773;28;20046;-79
2023/03/19 04:43:27;;;;;;;7.05;5.85;;;10.80;99.90;;;;;;4952821;28;20514;-76
2023/03/19 04:45:54;;;;;;;6.82;4.70;;;10.80;99.90;;;;;;4954027;28;20622;-78
2023/03/19 04:48:22;;;;;;;7.82;5.85;;;10.80;99.90;;;;;;4958171;28;20038;-76
2023/03/19 04:50:52;;;;;;;5.80;5.15;;;10.70;99.90;;;;;;4947511;28;20052;-77
2023/03/19 04:53:22;;;;;;;6.30;5.40;;;10.70;99.90;;;;;;4955578;28;20114;-78
2023/03/19 04:55:49;;;;;;;5.88;4.82;;;10.70;99.90;;;;;;4961329;28;20050;-79
2023/03/19 04:58:18;;;;;;;5.38;4.72;;;10.70;99.90;;;;;;4960865;28;21064;-79
2023/03/19 05:00:50;;;;;;;7.53;6.07;;;10.70;99.90;;;;;;4949879;28;20405;-77
2023/03/19 05:03:21;;;;;;;9.65;6.38;;;10.70;99.90;;;;;;4952320;28;20048;-76
2023/03/19 05:05:48;;;;;;;6.50;5.63;;;10.70;99.90;;;;;;4921737;28;20042;-78
2023/03/19 05:08:15;;;;;;;8.13;5.93;;;10.70;99.90;;;;;;4952955;28;20039;-76
2023/03/19 05:10:41;;;;;;;7.32;4.93;;;10.70;99.90;;;;;;4961683;28;20057;-76
2023/03/19 05:13:08;;;;;;;5.35;4.10;;;10.70;99.90;;;;;;4961508;28;20053;-76
2023/03/19 05:15:45;;;;;;;8.02;5.88;;;10.70;99.90;;;;;;4959729;28;20042;-77
2023/03/19 05:18:12;;;;;;;7.85;6.50;;;10.70;99.90;;;;;;4952740;28;20357;-76
2023/03/19 05:20:43;;;;;;;8.60;6.90;;;10.70;99.90;;;;;;4932263;28;20508;-78
2023/03/19 05:23:17;;;;;;;12.77;8.68;;;10.60;99.90;;;;;;4938354;28;20042;-76
2023/03/19 05:25:51;;;;;;;9.23;8.02;;;10.60;99.90;;;;;;4964687;28;20713;-78
2023/03/19 05:28:25;;;;;;;10.40;8.90;;;10.60;99.90;;;;;;4954752;28;20039;-77
2023/03/19 05:30:51;;;;;;;9.82;7.97;;;10.60;99.90;;;;;;4954967;28;20519;-77
2023/03/19 05:33:25;;;;;;;12.00;9.00;;;10.60;99.90;;;;;;4945744;28;20045;-78
2023/03/19 05:35:53;;;;;;;11.35;9.50;;;10.60;99.90;;;;;;4957723;28;20405;-77
2023/03/19 05:38:35;;;;;;;16.15;12.20;;;10.60;99.90;;;;;;4954921;28;20053;-77
2023/03/19 05:41:08;;;;;;;13.70;10.98;;;10.60;99.90;;;;;;4920757;28;20050;-78
2023/03/19 05:43:50;;;;;;;16.70;11.57;;;10.60;99.90;;;;;;4949459;28;20043;-76
2023/03/19 05:46:32;;;;;;;14.23;11.30;;;10.50;99.90;;;;;;4941727;28;20046;-77
2023/03/19 05:48:58;;;;;;;16.48;11.57;;;10.60;99.90;;;;;;4955624;28;20505;-77
2023/03/19 05:51:25;;;;;;;13.40;10.50;;;10.60;99.90;;;;;;4954329;28;20053;-78
2023/03/19 05:53:51;;;;;;;14.88;11.02;;;10.60;99.90;;;;;;4938085;28;20039;-77
2023/03/19 05:56:30;;;;;;;15.95;10.90;;;10.60;99.90;;;;;;4937496;28;20106;-76
2023/03/19 05:59:13;;;;;;;14.07;10.38;;;10.60;99.90;;;;;;4932504;28;20042;-80
2023/03/19 06:01:44;;;;;;;19.05;13.75;;;10.60;99.90;;;;;;4936809;28;20045;-78
2023/03/19 06:04:10;;;;;;;19.00;14.45;;;10.60;99.90;;;;;;4961844;28;20050;-76
2023/03/19 06:06:37;;;;;;;21.35;16.35;;;10.60;99.90;;;;;;4944017;28;20034;-77
2023/03/19 06:09:03;;;;;;;19.48;14.75;;;10.60;99.90;;;;;;4965924;28;20058;-78
2023/03/19 06:11:38;;;;;;;22.90;16.40;;;10.60;99.90;;;;;;4953059;28;20030;-75
2023/03/19 06:14:28;;;;;;;19.60;14.35;;;10.60;99.90;;;;;;4936144;28;20054;-77
2023/03/19 06:17:26;;;;;;;23.73;16.20;;;10.60;99.90;;;;;;4953489;28;20054;-75
2023/03/19 06:19:54;;;;;;;21.13;15.93;;;10.60;99.90;;;;;;4950454;28;20034;-77
2023/03/19 06:22:20;;;;;;;23.88;14.90;;;10.60;99.90;;;;;;4958321;28;20381;-77
2023/03/19 06:24:46;;;;;;;20.38;14.88;;;10.70;99.90;;;;;;4940377;28;20393;-76
2023/03/19 06:27:13;;;;;;;29.38;18.92;;;10.70;99.90;;;;;;4936995;28;20685;-75
2023/03/19 06:29:39;;;;;;;23.73;16.85;;;10.70;99.90;;;;;;4944223;28;20482;-78
2023/03/19 06:32:17;;;;;;;29.73;19.52;;;10.80;99.90;;;;;;4939005;28;20406;-75
2023/03/19 06:34:43;;;;;;;26.92;18.50;;;10.80;99.90;;;;;;4953023;28;20042;-79
2023/03/19 06:37:11;;;;;;;28.05;19.73;;;10.80;99.90;;;;;;4956251;28;20054;-76
2023/03/19 06:39:37;;;;;;;27.83;18.60;;;10.80;99.90;;;;;;4935683;28;20058;-76
2023/03/19 06:42:03;;;;;;;32.58;20.23;;;10.90;99.90;;;;;;4959056;28;20046;-76
2023/03/19 06:44:30;;;;;;;35.67;23.65;;;10.90;99.90;;;;;;4956110;28;20060;-76
2023/03/19 06:46:56;;;;;;;28.05;21.00;;;10.90;99.90;;;;;;4972415;28;20058;-76
2023/03/19 06:49:22;;;;;;;28.65;20.48;;;10.90;99.90;;;;;;4931884;28;20054;-78
2023/03/19 06:51:49;;;;;;;27.33;20.65;;;10.90;99.90;;;;;;4973789;28;20405;-76
2023/03/19 06:54:15;;;;;;;27.85;20.75;;;11.00;99.90;;;;;;4965347;28;20053;-77
2023/03/19 06:56:41;;;;;;;27.23;19.73;;;11.00;99.90;;;;;;4985195;28;20072;-75
2023/03/19 06:59:11;;;;;;;26.98;19.38;;;11.00;99.90;;;;;;4958721;28;20041;-78
2023/03/19 07:01:40;;;;;;;27.48;18.52;;;11.00;99.90;;;;;;4958659;28;20048;-77
2023/03/19 07:04:07;;;;;;;27.25;19.98;;;11.10;99.90;;;;;;4962002;28;20045;-77
2023/03/19 07:06:34;;;;;;;32.55;22.35;;;11.10;99.90;;;;;;4976341;28;20050;-80
2023/03/19 07:09:00;;;;;;;29.95;22.95;;;11.10;99.90;;;;;;4954346;28;20060;-77
2023/03/19 07:11:26;;;;;;;28.98;21.63;;;11.10;99.90;;;;;;4963941;28;20102;-77
2023/03/19 07:13:53;;;;;;;27.00;20.80;;;11.10;99.90;;;;;;4955928;28;22515;-77
2023/03/19 07:16:19;;;;;;;26.05;19.50;;;11.10;99.90;;;;;;4982095;28;20038;-76
2023/03/19 07:18:45;;;;;;;22.25;17.88;;;11.20;99.90;;;;;;4957881;28;20041;-79
2023/03/19 07:21:12;;;;;;;22.65;17.98;;;11.20;99.90;;;;;;4940963;28;20412;-77
2023/03/19 07:23:39;;;;;;;24.83;19.42;;;11.30;99.90;;;;;;4959012;28;20042;-77
2023/03/19 07:26:05;;;;;;;23.50;18.77;;;11.30;99.90;;;;;;4977413;28;20038;-77
2023/03/19 07:28:31;;;;;;;26.58;19.05;;;11.30;99.90;;;;;;4977971;28;20879;-79
2023/03/19 07:30:58;;;;;;;33.85;24.50;;;11.30;99.90;;;;;;4944762;28;20038;-76
2023/03/19 07:33:24;;;;;;;29.67;22.38;;;11.40;99.90;;;;;;4944736;28;20038;-78
2023/03/19 07:35:51;;;;;;;26.70;19.95;;;11.40;99.90;;;;;;4977659;28;20382;-79
2023/03/19 07:38:17;;;;;;;23.23;18.50;;;11.40;99.90;;;;;;4974773;28;20064;-77
2023/03/19 07:40:43;;;;;;;19.70;16.10;;;11.50;99.90;;;;;;4952087;28;20042;-78
2023/03/19 07:43:10;;;;;;;20.23;15.32;;;11.50;99.90;;;;;;4941403;28;20057;-78
2023/03/19 07:45:36;;;;;;;13.90;12.15;;;11.60;99.90;;;;;;4978511;28;20061;-77
2023/03/19 07:48:03;;;;;;;14.60;11.80;;;11.60;99.90;;;;;;4981689;28;22160;-78
2023/03/19 07:50:30;;;;;;;16.05;12.82;;;11.60;99.90;;;;;;4942304;28;20045;-78
2023/03/19 07:52:56;;;;;;;15.57;11.65;;;11.60;99.90;;;;;;4959230;28;20061;-77
2023/03/19 07:55:23;;;;;;;16.23;13.30;;;11.70;99.90;;;;;;4974537;28;20042;-78
2023/03/19 07:57:49;;;;;;;18.38;15.60;;;11.70;99.90;;;;;;4958879;28;20049;-78
2023/03/19 08:00:16;;;;;;;18.90;15.00;;;11.70;99.90;;;;;;4950873;28;20021;-77
2023/03/19 08:02:44;;;;;;;16.70;14.32;;;11.80;99.90;;;;;;4965099;28;20041;-78
2023/03/19 08:05:11;;;;;;;16.40;14.27;;;11.80;99.90;;;;;;4983393;28;20799;-78
2023/03/19 08:07:37;;;;;;;16.02;13.13;;;11.90;99.90;;;;;;4977920;28;20049;-77
2023/03/19 08:10:05;;;;;;;13.07;11.55;;;12.00;99.90;;;;;;4949693;28;20049;-77
2023/03/19 08:12:32;;;;;;;16.75;13.55;;;12.10;99.90;;;;;;4943080;28;20029;-77
2023/03/19 08:14:58;;;;;;;11.68;10.00;;;12.20;99.90;;;;;;4973678;28;20077;-79
2023/03/19 08:17:24;;;;;;;14.13;12.30;;;12.20;99.90;;;;;;4976660;28;20030;-78
2023/03/19 08:19:51;;;;;;;11.80;10.00;;;12.30;99.90;;;;;;4937795;28;20034;-79
2023/03/19 08:22:17;;;;;;;12.75;10.70;;;12.40;99.90;;;;;;4967323;28;20027;-79
2023/03/19 08:24:44;;;;;;;11.75;10.55;;;12.50;99.90;;;;;;4980404;28;22797;-79
2023/03/19 08:27:10;;;;;;;10.63;9.60;;;12.60;99.90;;;;;;4960233;28;20441;-79
2023/03/19 08:29:36;;;;;;;10.25;8.80;;;12.70;99.90;;;;;;4950176;28;20076;-78
2023/03/19 08:32:03;;;;;;;9.70;8.52;;;12.80;99.90;;;;;;4976619;28;20038;-77
2023/03/19 08:34:29;;;;;;;10.00;9.00;;;12.90;99.90;;;;;;4968920;28;20057;-78
2023/03/19 08:36:56;;;;;;;9.95;8.73;;;13.00;99.90;;;;;;4962482;28;20046;-79
2023/03/19 08:39:22;;;;;;;12.75;9.43;;;13.00;99.90;;;;;;4961815;28;20042;-79
2023/03/19 08:41:49;;;;;;;10.05;9.00;;;12.90;99.90;;;;;;4968890;28;20045;-78
2023/03/19 08:44:15;;;;;;;10.48;8.60;;;12.90;99.90;;;;;;4960786;28;20054;-79
2023/03/19 08:46:41;;;;;;;10.85;9.20;;;12.90;99.90;;;;;;4976817;28;20045;-78
2023/03/19 08:49:07;;;;;;;11.30;9.55;;;12.90;99.90;;;;;;4957473;28;20045;-78
2023/03/19 08:51:34;;;;;;;12.57;10.23;;;12.90;99.90;;;;;;4962001;28;20037;-78
2023/03/19 08:54:00;;;;;;;14.82;10.95;;;13.00;99.90;;;;;;4974639;28;20056;-79
2023/03/19 08:56:27;;;;;;;9.63;8.25;;;13.00;99.90;;;;;;4964302;28;20029;-79
2023/03/19 08:58:55;;;;;;;8.43;7.63;;;13.00;99.90;;;;;;4967132;28;20045;-79
2023/03/19 09:01:23;;;;;;;14.00;11.35;;;13.10;99.90;;;;;;4978176;28;20412;-80
2023/03/19 09:03:49;;;;;;;8.98;7.47;;;13.10;99.90;;;;;;4964260;28;20034;-78
2023/03/19 09:06:15;;;;;;;9.43;7.57;;;13.10;99.90;;;;;;4947987;28;20446;-78
2023/03/19 09:08:42;;;;;;;8.10;6.68;;;13.10;99.90;;;;;;4957330;28;20026;-79
2023/03/19 09:11:09;;;;;;;10.25;7.45;;;13.20;99.90;;;;;;4971554;28;20049;-79
2023/03/19 09:13:36;;;;;;;12.05;9.85;;;13.20;99.90;;;;;;4943702;28;20130;-79
2023/03/19 09:16:03;;;;;;;10.00;8.82;;;13.20;99.90;;;;;;4967788;28;20034;-79
2023/03/19 09:18:30;;;;;;;12.98;9.60;;;13.30;99.90;;;;;;4982118;28;20056;-79
2023/03/19 09:20:56;;;;;;;13.02;10.57;;;13.40;99.90;;;;;;4951172;28;20045;-80
2023/03/19 09:23:23;;;;;;;13.05;10.50;;;13.50;99.90;;;;;;4944570;28;20053;-79
2023/03/19 09:25:50;;;;;;;13.07;11.65;;;13.70;99.90;;;;;;4940054;28;20065;-79
2023/03/19 09:28:17;;;;;;;12.20;10.02;;;13.80;99.90;;;;;;4959807;28;20026;-78
2023/03/19 09:30:47;;;;;;;12.07;10.65;;;13.90;99.90;;;;;;4934711;28;20046;-79
2023/03/19 09:33:15;;;;;;;14.10;11.25;;;13.90;99.90;;;;;;4943936;28;20042;-80
2023/03/19 09:35:42;;;;;;;11.05;8.90;;;13.80;99.90;;;;;;4964908;28;20031;-78
2023/03/19 09:38:08;;;;;;;11.55;10.35;;;13.80;99.90;;;;;;4965764;28;20111;-80
2023/03/19 09:40:40;;;;;;;11.27;10.18;;;13.90;99.90;;;;;;4954635;28;20393;-79
2023/03/19 09:43:39;;;;;;;12.82;11.55;;;14.00;99.90;;;;;;4959285;28;20041;-79
2023/03/19 09:46:23;;;;;;;14.70;12.20;;;14.20;99.90;;;;;;4941475;28;20053;-79
2023/03/19 09:49:04;;;;;;;13.48;11.75;;;14.30;99.90;;;;;;4955878;28;20504;-79
2023/03/19 09:51:48;;;;;;;11.32;10.18;;;14.30;99.90;;;;;;4975343;28;20038;-78
2023/03/19 09:54:35;;;;;;;13.32;11.60;;;14.50;99.90;;;;;;4967176;28;20042;-79
2023/03/19 09:57:02;;;;;;;12.00;10.73;;;14.50;99.90;;;;;;4962207;28;20026;-78
2023/03/19 09:59:29;;;;;;;11.10;10.00;;;14.50;99.90;;;;;;4951579;28;20064;-78
2023/03/19 10:02:23;;;;;;;11.95;10.70;;;14.60;99.90;;;;;;4942261;28;20038;-79
2023/03/19 10:05:21;;;;;;;13.55;11.20;;;14.70;99.90;;;;;;4976135;28;20631;-80
2023/03/19 10:08:16;;;;;;;15.27;12.40;;;14.80;99.90;;;;;;4962093;28;20056;-78
2023/03/19 10:10:54;;;;;;;12.73;10.85;;;14.80;99.90;;;;;;4958517;28;20048;-78
2023/03/19 10:13:41;;;;;;;13.75;12.30;;;14.80;99.90;;;;;;4966142;28;20026;-78
2023/03/19 10:16:17;;;;;;;13.05;11.20;;;14.90;99.90;;;;;;4971953;28;20041;-78
2023/03/19 10:18:48;;;;;;;10.38;9.45;;;15.00;99.90;;;;;;4947721;28;20050;-79
2023/03/19 10:21:31;;;;;;;11.55;10.38;;;15.20;99.90;;;;;;4952686;28;20925;-81
2023/03/19 10:24:00;;;;;;;12.15;10.95;;;15.50;99.90;;;;;;4958267;28;20053;-78
2023/03/19 10:26:34;;;;;;;13.98;11.27;;;15.80;99.90;;;;;;4960040;28;20052;-81
2023/03/19 10:29:09;;;;;;;14.27;11.13;;;16.10;99.90;;;;;;4961600;28;20544;-79
2023/03/19 10:31:38;;;;;;;12.90;10.38;;;16.60;99.90;;;;;;4977450;28;20057;-80
2023/03/19 10:34:31;;;;;;;8.68;7.78;;;17.00;99.90;;;;;;4972628;28;20042;-78
2023/03/19 10:37:11;;;;;;;11.05;9.43;;;17.40;99.90;;;;;;4957662;28;20048;-78
2023/03/19 10:39:40;;;;;;;12.60;10.65;;;17.80;99.90;;;;;;4935790;28;20048;-77
2023/03/19 10:42:51;;;;;;;8.80;7.18;;;18.20;99.90;;;;;;4957418;28;20042;-80
2023/03/19 10:45:27;;;;;;;11.65;8.57;;;18.30;99.90;;;;;;4960258;28;20045;-79
2023/03/19 10:47:55;;;;;;;10.18;7.57;;;18.40;99.90;;;;;;4965108;28;20045;-77
2023/03/19 10:50:37;;;;;;;11.35;9.20;;;18.90;99.90;;;;;;4949291;28;20054;-79
2023/03/19 10:53:29;;;;;;;11.07;8.57;;;19.30;99.90;;;;;;4971718;28;20034;-78
2023/03/19 10:56:16;;;;;;;7.70;6.90;;;19.50;99.90;;;;;;4957897;28;20041;-78
2023/03/19 10:58:54;;;;;;;11.77;9.52;;;19.60;99.90;;;;;;4956081;28;20038;-80
2023/03/19 11:01:25;;;;;;;17.02;7.32;;;19.70;99.90;;;;;;4957554;28;20045;-77
2023/03/19 11:03:56;;;;;;;10.82;7.88;;;20.00;99.90;;;;;;4953628;28;20037;-79
2023/03/19 11:06:26;;;;;;;9.45;8.52;;;20.00;99.90;;;;;;4963189;28;20496;-79
2023/03/19 11:09:01;;;;;;;9.32;7.35;;;20.20;99.90;;;;;;4953179;28;20050;-79
2023/03/19 11:11:50;;;;;;;10.55;9.50;;;20.40;99.90;;;;;;4954958;28;20050;-78
2023/03/19 11:14:19;;;;;;;9.23;8.32;;;20.80;99.90;;;;;;4972487;28;20033;-83
2023/03/19 11:16:54;;;;;;;7.97;6.85;;;20.80;99.90;;;;;;4973170;28;20502;-81
2023/03/19 11:19:25;;;;;;;10.13;7.10;;;21.00;99.90;;;;;;4970422;28;20432;-81
2023/03/19 11:22:11;;;;;;;8.98;8.05;;;21.10;99.90;;;;;;4965102;28;20042;-81
2023/03/19 11:24:39;;;;;;;7.80;7.00;;;21.20;99.90;;;;;;4959820;28;20052;-81
2023/03/19 11:27:10;;;;;;;11.68;9.73;;;21.50;99.90;;;;;;4956882;28;20033;-82
2023/03/19 11:29:40;;;;;;;9.23;8.25;;;21.90;99.90;;;;;;4949512;28;20041;-82
2023/03/19 11:32:31;;;;;;;11.68;8.18;;;22.20;99.90;;;;;;4972755;28;20046;-82
2023/03/19 11:35:25;;;;;;;11.25;8.60;;;22.50;99.90;;;;;;4956976;28;20041;-83
2023/03/19 11:37:54;;;;;;;7.57;6.20;;;22.80;99.90;;;;;;4966639;28;20045;-81
2023/03/19 11:40:47;;;;;;;6.53;5.57;;;22.70;99.90;;;;;;4960274;28;20038;-81
2023/03/19 11:43:35;;;;;;;7.97;6.10;;;22.80;99.90;;;;;;4961002;28;20041;-83
2023/03/19 11:46:38;;;;;;;6.13;4.22;;;22.90;99.90;;;;;;4973214;28;20038;-80
2023/03/19 11:49:14;;;;;;;;;;;22.90;99.90;;;;;;4969419;28;20057;-81
2023/03/19 11:51:59;;;;;;;7.65;6.07;;;22.70;99.90;;;;;;4957500;28;19921;-81
2023/03/19 11:55:03;;;;;;;7.18;6.05;;;22.50;99.90;;;;;;4948882;28;20090;-80
2023/03/19 11:57:53;;;;;;;7.20;5.60;;;22.30;99.90;;;;;;4894958;28;20044;-80
2023/03/19 12:00:56;;;;;;;10.80;8.20;;;22.40;99.90;;;;;;4939175;28;20038;-79
2023/03/19 12:03:56;;;;;;;12.63;8.05;;;22.30;99.90;;;;;;4959822;28;20531;-78
2023/03/19 12:06:39;;;;;;;10.68;8.45;;;22.10;99.90;;;;;;4960227;28;21274;-79
2023/03/19 12:09:15;;;;;;;12.73;9.63;;;21.70;99.90;;;;;;4949518;28;20626;-79
2023/03/19 12:11:52;;;;;;;11.45;9.60;;;21.30;99.90;;;;;;4979639;28;20061;-78
2023/03/19 12:15:09;;;;;;;11.68;9.05;;;21.00;99.90;;;;;;4950219;28;20033;-79
2023/03/19 12:18:15;;;;;;;14.73;9.93;;;20.60;99.90;;;;;;4901947;28;20046;-81
2023/03/19 12:21:02;;;;;;;10.95;8.88;;;20.00;99.90;;;;;;4962265;28;20049;-79
2023/03/19 12:23:38;;;;;;;15.75;11.20;;;19.50;99.90;;;;;;4971558;28;20042;-78
2023/03/19 12:26:06;;;;;;;12.73;8.73;;;19.00;99.90;;;;;;4954912;28;20413;-81
2023/03/19 12:28:56;;;;;;;12.60;9.57;;;18.80;99.90;;;;;;4943661;28;20053;-79
2023/03/19 12:31:42;;;;;;;16.85;10.88;;;18.50;99.90;;;;;;4963968;28;20037;-78
2023/03/19 12:34:32;;;;;;;12.82;8.18;;;18.40;99.90;;;;;;4976792;28;20030;-80
2023/03/19 12:37:17;;;;;;;14.57;9.15;;;18.40;99.90;;;;;;4955099;28;20050;-81
2023/03/19 12:40:11;;;;;;;15.68;9.10;;;18.50;99.90;;;;;;4946565;28;21529;-79
2023/03/19 12:42:39;;;;;;;13.30;9.55;;;18.90;99.90;;;;;;4943178;28;20522;-78
2023/03/19 12:45:33;;;;;;;13.73;9.90;;;19.30;99.90;;;;;;4959862;28;20053;-77
2023/03/19 12:48:08;;;;;;;13.13;9.20;;;19.70;99.90;;;;;;4948360;28;20034;-78
2023/03/19 12:50:38;;;;;;;13.27;8.85;;;20.40;99.90;;;;;;4921938;28;20040;-79
2023/03/19 12:53:12;;;;;;;16.73;10.27;;;21.30;99.90;;;;;;4940784;28;20357;-79
2023/03/19 12:55:55;;;;;;;13.75;10.07;;;22.60;99.90;;;;;;4940798;28;20057;-78
2023/03/19 12:58:50;;;;;;;13.93;9.82;;;23.60;99.90;;;;;;4954649;28;20038;-75
2023/03/19 13:01:23;;;;;;;10.88;8.02;;;24.40;99.50;;;;;;4967487;28;20049;-79
2023/03/19 13:04:05;;;;;;;10.88;7.00;;;25.10;97.70;;;;;;4963727;28;20037;-77